AEE816 LOWS-EDDB
Flight info
| Callsign | AEE816 |
|---|---|
| Flight time | N/A |
| Altitude | 34000 |
| Route | NEMAL DCT PINQI DCT GAVLI T203 ATGUP ATGUP1R |
| Aircraft | A20N/M-SDE2E3FGHIRWXY/LB1 |
Departure
| Time | 2026-04-28 18:28 |
|---|---|
| Airport | Salzburg Airport (LOWS) |
Arrival
| Time | N/A |
|---|---|
| Airport | Berlin Brandenburg Airport (EDDB) |
| Time | Latitude | Longitude | Altitude | Speed | Heading |
|---|---|---|---|---|---|
| 2026-04-28 18:00 | 47.79090 | 12.99958 | 1423 ft | 0 kts | 282° |
| 2026-04-28 18:19 | 47.79108 | 12.99955 | 1423 ft | 6 kts | 43° |
| 2026-04-28 18:19 | 47.79129 | 13.00057 | 1422 ft | 12 kts | 101° |
| 2026-04-28 18:19 | 47.79076 | 13.00161 | 1422 ft | 13 kts | 138° |
| 2026-04-28 18:19 | 47.78997 | 13.00239 | 1421 ft | 14 kts | 149° |
| 2026-04-28 18:20 | 47.78947 | 13.00354 | 1421 ft | 13 kts | 129° |
| 2026-04-28 18:20 | 47.78865 | 13.00421 | 1421 ft | 14 kts | 156° |
| 2026-04-28 18:20 | 47.78770 | 13.00481 | 1420 ft | 15 kts | 157° |
| 2026-04-28 18:20 | 47.78671 | 13.00544 | 1420 ft | 15 kts | 157° |
| 2026-04-28 18:21 | 47.78566 | 13.00610 | 1419 ft | 16 kts | 157° |
| 2026-04-28 18:21 | 47.78458 | 13.00680 | 1419 ft | 17 kts | 156° |
| 2026-04-28 18:21 | 47.78340 | 13.00755 | 1419 ft | 19 kts | 156° |
| 2026-04-28 18:21 | 47.78246 | 13.00819 | 1418 ft | 8 kts | 150° |
| 2026-04-28 18:22 | 47.78224 | 13.00841 | 1418 ft | 0 kts | 144° |
| 2026-04-28 18:25 | 47.78223 | 13.00841 | 1418 ft | 0 kts | 144° |
| 2026-04-28 18:25 | 47.78217 | 13.00849 | 1418 ft | 0 kts | 141° |
| 2026-04-28 18:26 | 47.78213 | 13.00853 | 1418 ft | 1 kts | 141° |
| 2026-04-28 18:26 | 47.78192 | 13.00887 | 1418 ft | 7 kts | 123° |
| 2026-04-28 18:26 | 47.78182 | 13.00969 | 1418 ft | 8 kts | 79° |
| 2026-04-28 18:27 | 47.78203 | 13.01061 | 1418 ft | 9 kts | 64° |
| 2026-04-28 18:27 | 47.78250 | 13.01081 | 1418 ft | 0 kts | 334° |
| 2026-04-28 18:27 | 47.78252 | 13.01080 | 1418 ft | 3 kts | 334° |
| 2026-04-28 18:27 | 47.78522 | 13.00911 | 1419 ft | 80 kts | 336° |
| 2026-04-28 18:28 | 47.79248 | 13.00450 | 1421 ft | 145 kts | 337° |
| 2026-04-28 18:28 | 47.80303 | 12.99798 | 1648 ft | 177 kts | 339° |
| 2026-04-28 18:28 | 47.81488 | 12.99055 | 2168 ft | 192 kts | 341° |
| 2026-04-28 18:28 | 47.82784 | 12.98265 | 2694 ft | 214 kts | 342° |
| 2026-04-28 18:29 | 47.84222 | 12.97466 | 3315 ft | 226 kts | 357° |
| 2026-04-28 18:29 | 47.85746 | 12.97626 | 4048 ft | 225 kts | 25° |
| 2026-04-28 18:29 | 47.87075 | 12.98831 | 4915 ft | 226 kts | 40° |
| 2026-04-28 18:29 | 47.88291 | 13.00294 | 5775 ft | 231 kts | 43° |
| 2026-04-28 18:30 | 47.89458 | 13.01915 | 6656 ft | 234 kts | 51° |
| 2026-04-28 18:30 | 47.89786 | 13.02535 | 6942 ft | 235 kts | 57° |
| 2026-04-28 18:30 | 47.90485 | 13.06371 | 8294 ft | 243 kts | 88° |
| 2026-04-28 18:30 | 47.90538 | 13.08959 | 8835 ft | 261 kts | 87° |
| 2026-04-28 18:31 | 47.90612 | 13.11773 | 9350 ft | 279 kts | 86° |
| 2026-04-28 18:31 | 47.90702 | 13.14722 | 9962 ft | 292 kts | 86° |
| 2026-04-28 18:31 | 47.90799 | 13.17749 | 10687 ft | 300 kts | 86° |
| 2026-04-28 18:31 | 47.90906 | 13.20937 | 11169 ft | 318 kts | 85° |
| 2026-04-28 18:32 | 47.91344 | 13.24226 | 11535 ft | 335 kts | 64° |
| 2026-04-28 18:32 | 47.92774 | 13.26966 | 12064 ft | 343 kts | 37° |
| 2026-04-28 18:32 | 47.94809 | 13.28828 | 12890 ft | 344 kts | 26° |
| 2026-04-28 18:32 | 47.96915 | 13.30477 | 13668 ft | 348 kts | 26° |
| 2026-04-28 18:33 | 47.99054 | 13.32211 | 14422 ft | 352 kts | 27° |
| 2026-04-28 18:33 | 48.01168 | 13.34018 | 15138 ft | 356 kts | 28° |
| 2026-04-28 18:33 | 48.03320 | 13.35927 | 15761 ft | 363 kts | 28° |
| 2026-04-28 18:33 | 48.05488 | 13.37897 | 16339 ft | 371 kts | 28° |
| 2026-04-28 18:34 | 48.07685 | 13.39926 | 16990 ft | 375 kts | 28° |
| 2026-04-28 18:34 | 48.09903 | 13.41991 | 17620 ft | 379 kts | 28° |
| 2026-04-28 18:34 | 48.12152 | 13.44099 | 18164 ft | 383 kts | 28° |
| 2026-04-28 18:34 | 48.14416 | 13.46229 | 18828 ft | 386 kts | 28° |
| 2026-04-28 18:35 | 48.16685 | 13.48366 | 19454 ft | 389 kts | 27° |
| 2026-04-28 18:35 | 48.19011 | 13.50558 | 20029 ft | 394 kts | 27° |
| 2026-04-28 18:35 | 48.21328 | 13.52746 | 20605 ft | 398 kts | 27° |
| 2026-04-28 18:35 | 48.23660 | 13.54954 | 21173 ft | 403 kts | 27° |
| 2026-04-28 18:36 | 48.26059 | 13.57225 | 21726 ft | 407 kts | 27° |
| 2026-04-28 18:36 | 48.28454 | 13.59499 | 22209 ft | 414 kts | 27° |
| 2026-04-28 18:36 | 48.30887 | 13.61805 | 22672 ft | 420 kts | 27° |
| 2026-04-28 18:36 | 48.33382 | 13.64177 | 23220 ft | 424 kts | 27° |
| 2026-04-28 18:37 | 48.35876 | 13.66553 | 23752 ft | 427 kts | 27° |
| 2026-04-28 18:37 | 48.38395 | 13.68959 | 24272 ft | 431 kts | 27° |
| 2026-04-28 18:37 | 48.40923 | 13.71372 | 24792 ft | 434 kts | 27° |
| 2026-04-28 18:37 | 48.43488 | 13.73825 | 25287 ft | 437 kts | 26° |
| 2026-04-28 18:38 | 48.46064 | 13.76289 | 25739 ft | 441 kts | 27° |
| 2026-04-28 18:38 | 48.48634 | 13.78751 | 26196 ft | 444 kts | 26° |
| 2026-04-28 18:38 | 48.51250 | 13.81259 | 26671 ft | 446 kts | 26° |
| 2026-04-28 18:38 | 48.53854 | 13.83759 | 27120 ft | 449 kts | 26° |
| 2026-04-28 18:39 | 48.56518 | 13.86318 | 27503 ft | 452 kts | 25° |
| 2026-04-28 18:39 | 48.59160 | 13.88860 | 27899 ft | 455 kts | 25° |
| 2026-04-28 18:39 | 48.61843 | 13.91447 | 28314 ft | 457 kts | 25° |
| 2026-04-28 18:39 | 48.64499 | 13.93972 | 28766 ft | 454 kts | 21° |
| 2026-04-28 18:40 | 48.67346 | 13.95810 | 29183 ft | 439 kts | 7° |
| 2026-04-28 18:40 | 48.70325 | 13.96570 | 29422 ft | 428 kts | 354° |
| 2026-04-28 18:40 | 48.73231 | 13.96292 | 29571 ft | 421 kts | 342° |
| 2026-04-28 18:40 | 48.76060 | 13.95187 | 29843 ft | 417 kts | 336° |
| 2026-04-28 18:41 | 48.78804 | 13.93956 | 30235 ft | 415 kts | 336° |
| 2026-04-28 18:41 | 48.81573 | 13.92700 | 30649 ft | 413 kts | 336° |
| 2026-04-28 18:41 | 48.84299 | 13.91463 | 31050 ft | 411 kts | 336° |
| 2026-04-28 18:41 | 48.87040 | 13.90216 | 31430 ft | 409 kts | 336° |
| 2026-04-28 18:42 | 48.89733 | 13.88995 | 31805 ft | 407 kts | 336° |
| 2026-04-28 18:42 | 48.92440 | 13.87767 | 32126 ft | 406 kts | 336° |
| 2026-04-28 18:42 | 48.95157 | 13.86536 | 32401 ft | 406 kts | 336° |
| 2026-04-28 18:42 | 48.97865 | 13.85306 | 32671 ft | 406 kts | 336° |
| 2026-04-28 18:43 | 49.00544 | 13.84089 | 32910 ft | 407 kts | 336° |
| 2026-04-28 18:43 | 49.03267 | 13.82856 | 33145 ft | 407 kts | 336° |
| 2026-04-28 18:43 | 49.05953 | 13.81633 | 33363 ft | 407 kts | 336° |
| 2026-04-28 18:43 | 49.08686 | 13.80392 | 33563 ft | 408 kts | 336° |
| 2026-04-28 18:44 | 49.11422 | 13.79146 | 33738 ft | 410 kts | 337° |
| 2026-04-28 18:44 | 49.16903 | 13.76649 | 34118 ft | 411 kts | 337° |
| 2026-04-28 18:44 | 49.19636 | 13.75399 | 34141 ft | 412 kts | 337° |
| 2026-04-28 18:45 | 49.25119 | 13.72894 | 34153 ft | 412 kts | 337° |
| 2026-04-28 18:45 | 49.30636 | 13.70367 | 34153 ft | 411 kts | 337° |
| 2026-04-28 18:46 | 49.36111 | 13.67850 | 34153 ft | 412 kts | 337° |
| 2026-04-28 18:46 | 49.41594 | 13.65328 | 34162 ft | 412 kts | 337° |
| 2026-04-28 18:47 | 49.47061 | 13.62803 | 34162 ft | 413 kts | 337° |
| 2026-04-28 18:47 | 49.52563 | 13.60260 | 34163 ft | 413 kts | 337° |
| 2026-04-28 18:48 | 49.58084 | 13.57695 | 34169 ft | 414 kts | 338° |
| 2026-04-28 18:48 | 49.63569 | 13.55146 | 34171 ft | 414 kts | 338° |
| 2026-04-28 18:49 | 49.67228 | 13.53445 | 34168 ft | 415 kts | 338° |
| 2026-04-28 18:49 | 49.74594 | 13.50003 | 34177 ft | 416 kts | 338° |
| 2026-04-28 18:50 | 49.80099 | 13.47427 | 34175 ft | 416 kts | 338° |
| 2026-04-28 18:50 | 49.85653 | 13.44818 | 34186 ft | 417 kts | 338° |
| 2026-04-28 18:51 | 49.91190 | 13.42214 | 34183 ft | 417 kts | 338° |
| 2026-04-28 18:51 | 49.96750 | 13.39592 | 34197 ft | 417 kts | 338° |
| 2026-04-28 18:52 | 50.02284 | 13.36975 | 34190 ft | 418 kts | 338° |
| 2026-04-28 18:52 | 50.07859 | 13.34332 | 34193 ft | 418 kts | 337° |
| 2026-04-28 18:53 | 50.13473 | 13.31665 | 34207 ft | 420 kts | 338° |
| 2026-04-28 18:53 | 50.19085 | 13.28991 | 34203 ft | 420 kts | 338° |
| 2026-04-28 18:54 | 50.24646 | 13.26332 | 34214 ft | 420 kts | 338° |
| 2026-04-28 18:54 | 50.30232 | 13.23659 | 34216 ft | 421 kts | 338° |
| 2026-04-28 18:55 | 50.34877 | 13.21428 | 34210 ft | 421 kts | 338° |
| 2026-04-28 18:55 | 50.38614 | 13.19628 | 33947 ft | 423 kts | 338° |
| 2026-04-28 18:55 | 50.41401 | 13.18301 | 33481 ft | 425 kts | 340° |
| 2026-04-28 18:56 | 50.44285 | 13.17330 | 33015 ft | 431 kts | 346° |
| 2026-04-28 18:56 | 50.47297 | 13.16888 | 32553 ft | 437 kts | 353° |
| 2026-04-28 18:56 | 50.50332 | 13.16998 | 32086 ft | 443 kts | 359° |
| 2026-04-28 18:56 | 50.53400 | 13.17686 | 31622 ft | 450 kts | 6° |
| 2026-04-28 18:57 | 50.56429 | 13.18965 | 31158 ft | 454 kts | 13° |
| 2026-04-28 18:57 | 50.59384 | 13.20848 | 30648 ft | 456 kts | 20° |
| 2026-04-28 18:57 | 50.62184 | 13.23027 | 30116 ft | 450 kts | 21° |
| 2026-04-28 18:57 | 50.64919 | 13.25247 | 29600 ft | 443 kts | 22° |
| 2026-04-28 18:58 | 50.67657 | 13.27483 | 29066 ft | 437 kts | 22° |
| 2026-04-28 18:58 | 50.70298 | 13.29639 | 28540 ft | 428 kts | 22° |
| 2026-04-28 18:58 | 50.72872 | 13.31741 | 28002 ft | 409 kts | 22° |
| 2026-04-28 18:58 | 50.75339 | 13.33746 | 27473 ft | 395 kts | 22° |
| 2026-04-28 18:59 | 50.77744 | 13.35698 | 26939 ft | 382 kts | 22° |
| 2026-04-28 18:59 | 50.80070 | 13.37586 | 26396 ft | 365 kts | 22° |
| 2026-04-28 18:59 | 50.82265 | 13.39372 | 25866 ft | 350 kts | 22° |
| 2026-04-28 18:59 | 50.84369 | 13.41083 | 25336 ft | 338 kts | 22° |
| 2026-04-28 19:00 | 50.86445 | 13.42767 | 24802 ft | 330 kts | 21° |
| 2026-04-28 19:00 | 50.88480 | 13.44317 | 24280 ft | 326 kts | 19° |
| 2026-04-28 19:00 | 50.90535 | 13.45720 | 23757 ft | 321 kts | 17° |
| 2026-04-28 19:00 | 50.92611 | 13.46978 | 23229 ft | 319 kts | 15° |
| 2026-04-28 19:01 | 50.94716 | 13.48096 | 22706 ft | 318 kts | 13° |
| 2026-04-28 19:01 | 50.96851 | 13.49077 | 22188 ft | 318 kts | 11° |
| 2026-04-28 19:01 | 50.98989 | 13.49908 | 21664 ft | 318 kts | 8° |
| 2026-04-28 19:01 | 51.01149 | 13.50602 | 21147 ft | 318 kts | 7° |
| 2026-04-28 19:02 | 51.03318 | 13.51198 | 20624 ft | 319 kts | 6° |
| 2026-04-28 19:02 | 51.05486 | 13.51773 | 20288 ft | 313 kts | 6° |
| 2026-04-28 19:02 | 51.07563 | 13.52326 | 20255 ft | 298 kts | 6° |
| 2026-04-28 19:02 | 51.09562 | 13.52861 | 20255 ft | 287 kts | 6° |
| 2026-04-28 19:03 | 51.11528 | 13.53388 | 20260 ft | 287 kts | 6° |
| 2026-04-28 19:03 | 51.13491 | 13.53918 | 20266 ft | 287 kts | 6° |
| 2026-04-28 19:03 | 51.15459 | 13.54450 | 20272 ft | 287 kts | 6° |
| 2026-04-28 19:03 | 51.17426 | 13.55036 | 20263 ft | 289 kts | 12° |
| 2026-04-28 19:04 | 51.19256 | 13.56378 | 20019 ft | 294 kts | 27° |
| 2026-04-28 19:04 | 51.20961 | 13.58135 | 19749 ft | 292 kts | 29° |
| 2026-04-28 19:04 | 51.22642 | 13.59909 | 19500 ft | 290 kts | 28° |
| 2026-04-28 19:04 | 51.24331 | 13.61656 | 19249 ft | 289 kts | 28° |
| 2026-04-28 19:05 | 51.26015 | 13.63362 | 19001 ft | 287 kts | 27° |
| 2026-04-28 19:05 | 51.27694 | 13.65039 | 18765 ft | 285 kts | 28° |
| 2026-04-28 19:05 | 51.29361 | 13.66689 | 18509 ft | 284 kts | 28° |
| 2026-04-28 19:05 | 51.31036 | 13.68339 | 18277 ft | 283 kts | 27° |
| 2026-04-28 19:06 | 51.32702 | 13.69975 | 18035 ft | 282 kts | 27° |
| 2026-04-28 19:06 | 51.33817 | 13.71068 | 17867 ft | 281 kts | 27° |
| 2026-04-28 19:06 | 51.36031 | 13.73237 | 17528 ft | 280 kts | 27° |
| 2026-04-28 19:06 | 51.37678 | 13.74850 | 17316 ft | 278 kts | 27° |
| 2026-04-28 19:07 | 51.39317 | 13.76455 | 17289 ft | 278 kts | 27° |
| 2026-04-28 19:07 | 51.40963 | 13.78069 | 17287 ft | 278 kts | 27° |
| 2026-04-28 19:07 | 51.42607 | 13.79683 | 17279 ft | 273 kts | 27° |
| 2026-04-28 19:07 | 51.44176 | 13.81230 | 17273 ft | 259 kts | 27° |
| 2026-04-28 19:08 | 51.45678 | 13.82711 | 17270 ft | 252 kts | 27° |
| 2026-04-28 19:08 | 51.47185 | 13.84190 | 17269 ft | 252 kts | 27° |
| 2026-04-28 19:08 | 51.48672 | 13.85649 | 17273 ft | 251 kts | 27° |
| 2026-04-28 19:08 | 51.50157 | 13.87108 | 17276 ft | 251 kts | 27° |
| 2026-04-28 19:09 | 51.51636 | 13.88564 | 17274 ft | 251 kts | 27° |
| 2026-04-28 19:09 | 51.53135 | 13.90040 | 17281 ft | 251 kts | 27° |
| 2026-04-28 19:09 | 51.54616 | 13.91501 | 17285 ft | 251 kts | 27° |
| 2026-04-28 19:09 | 51.56097 | 13.92964 | 17283 ft | 252 kts | 27° |
| 2026-04-28 19:10 | 51.57597 | 13.94445 | 17273 ft | 252 kts | 27° |
| 2026-04-28 19:10 | 51.59079 | 13.95911 | 17282 ft | 252 kts | 27° |
| 2026-04-28 19:10 | 51.60575 | 13.97393 | 17282 ft | 252 kts | 27° |
| 2026-04-28 19:10 | 51.62049 | 13.98854 | 17281 ft | 251 kts | 27° |
| 2026-04-28 19:11 | 51.63530 | 14.00323 | 17284 ft | 251 kts | 27° |
| 2026-04-28 19:11 | 51.65022 | 14.01804 | 17283 ft | 250 kts | 27° |
| 2026-04-28 19:11 | 51.66500 | 14.03271 | 17176 ft | 252 kts | 27° |
| 2026-04-28 19:11 | 51.67974 | 14.04735 | 16922 ft | 249 kts | 27° |
| 2026-04-28 19:12 | 51.69458 | 14.06211 | 16662 ft | 248 kts | 27° |
| 2026-04-28 19:12 | 51.70908 | 14.07654 | 16409 ft | 247 kts | 27° |
| 2026-04-28 19:12 | 51.72369 | 14.09108 | 16294 ft | 245 kts | 27° |
| 2026-04-28 19:12 | 51.73825 | 14.10559 | 16292 ft | 246 kts | 27° |
| 2026-04-28 19:13 | 51.75269 | 14.11997 | 16153 ft | 246 kts | 27° |
| 2026-04-28 19:13 | 51.76723 | 14.13450 | 15969 ft | 245 kts | 27° |
| 2026-04-28 19:13 | 51.78177 | 14.14904 | 15784 ft | 244 kts | 27° |
| 2026-04-28 19:13 | 51.79616 | 14.16344 | 15594 ft | 244 kts | 27° |
| 2026-04-28 19:14 | 51.81057 | 14.17786 | 15417 ft | 243 kts | 27° |
| 2026-04-28 19:14 | 51.82489 | 14.19220 | 15242 ft | 242 kts | 27° |
| 2026-04-28 19:14 | 51.83913 | 14.20647 | 15063 ft | 241 kts | 27° |
| 2026-04-28 19:14 | 51.85330 | 14.22067 | 14885 ft | 241 kts | 27° |
| 2026-04-28 19:15 | 51.86750 | 14.23493 | 14719 ft | 240 kts | 27° |
| 2026-04-28 19:15 | 51.88167 | 14.24916 | 14560 ft | 240 kts | 27° |
| 2026-04-28 19:15 | 51.89575 | 14.26331 | 14402 ft | 239 kts | 27° |
| 2026-04-28 19:15 | 51.90504 | 14.27264 | 14297 ft | 238 kts | 27° |
| 2026-04-28 19:16 | 51.92384 | 14.29156 | 14087 ft | 237 kts | 27° |
| 2026-04-28 19:16 | 51.93776 | 14.30559 | 13931 ft | 236 kts | 27° |
| 2026-04-28 19:16 | 51.95169 | 14.31962 | 13776 ft | 236 kts | 27° |
| 2026-04-28 19:16 | 51.96557 | 14.33363 | 13625 ft | 235 kts | 27° |
| 2026-04-28 19:17 | 51.97936 | 14.34756 | 13400 ft | 235 kts | 27° |
| 2026-04-28 19:17 | 51.99324 | 14.36157 | 13025 ft | 237 kts | 27° |
| 2026-04-28 19:17 | 52.00716 | 14.37563 | 12649 ft | 238 kts | 27° |
| 2026-04-28 19:17 | 52.02116 | 14.38981 | 12269 ft | 239 kts | 28° |
| 2026-04-28 19:18 | 52.03521 | 14.40402 | 11894 ft | 240 kts | 28° |
| 2026-04-28 19:18 | 52.04932 | 14.41836 | 11513 ft | 241 kts | 30° |
| 2026-04-28 19:18 | 52.06113 | 14.43757 | 11116 ft | 250 kts | 59° |
| 2026-04-28 19:18 | 52.06457 | 14.46584 | 10733 ft | 262 kts | 90° |
| 2026-04-28 19:19 | 52.05973 | 14.49424 | 10390 ft | 266 kts | 106° |
| 2026-04-28 19:19 | 52.05293 | 14.52196 | 10299 ft | 256 kts | 112° |
| 2026-04-28 19:19 | 52.04179 | 14.54374 | 10296 ft | 260 kts | 144° |
| 2026-04-28 19:19 | 52.02562 | 14.55728 | 10309 ft | 262 kts | 153° |
| 2026-04-28 19:20 | 52.00909 | 14.56910 | 10307 ft | 262 kts | 157° |
| 2026-04-28 19:20 | 51.99125 | 14.57346 | 10287 ft | 262 kts | 192° |
| 2026-04-28 19:20 | 51.97522 | 14.56117 | 10302 ft | 255 kts | 227° |
| 2026-04-28 19:20 | 51.96538 | 14.53808 | 10301 ft | 244 kts | 257° |
| 2026-04-28 19:21 | 51.96333 | 14.51175 | 10307 ft | 233 kts | 283° |
| 2026-04-28 19:21 | 51.96845 | 14.48767 | 10307 ft | 224 kts | 308° |
| 2026-04-28 19:21 | 51.97916 | 14.47005 | 10311 ft | 219 kts | 331° |
| 2026-04-28 19:21 | 51.99270 | 14.45910 | 10316 ft | 218 kts | 336° |
| 2026-04-28 19:22 | 52.00642 | 14.44868 | 10314 ft | 219 kts | 336° |
| 2026-04-28 19:22 | 52.01114 | 14.44506 | 10314 ft | 219 kts | 336° |
| 2026-04-28 19:22 | 52.03392 | 14.42742 | 10312 ft | 218 kts | 336° |
| 2026-04-28 19:22 | 52.04752 | 14.41680 | 10314 ft | 218 kts | 336° |
| 2026-04-28 19:23 | 52.06195 | 14.41019 | 10305 ft | 217 kts | 0° |
| 2026-04-28 19:23 | 52.07673 | 14.41590 | 10318 ft | 221 kts | 25° |
| 2026-04-28 19:23 | 52.08868 | 14.43187 | 10315 ft | 228 kts | 49° |
| 2026-04-28 19:23 | 52.09532 | 14.45558 | 10315 ft | 238 kts | 75° |
| 2026-04-28 19:24 | 52.09450 | 14.48270 | 10304 ft | 249 kts | 103° |
| 2026-04-28 19:24 | 52.08540 | 14.50692 | 10305 ft | 259 kts | 135° |
| 2026-04-28 19:24 | 52.07007 | 14.52236 | 10313 ft | 262 kts | 153° |
| 2026-04-28 19:24 | 52.05349 | 14.53467 | 10308 ft | 262 kts | 154° |
| 2026-04-28 19:25 | 52.03684 | 14.54692 | 10309 ft | 262 kts | 153° |
| 2026-04-28 19:25 | 52.02028 | 14.55940 | 10301 ft | 262 kts | 153° |
| 2026-04-28 19:25 | 52.00324 | 14.56876 | 10287 ft | 263 kts | 175° |
| 2026-04-28 19:25 | 51.98536 | 14.56491 | 10293 ft | 260 kts | 206° |
| 2026-04-28 19:26 | 51.97121 | 14.54806 | 10297 ft | 252 kts | 237° |
| 2026-04-28 19:26 | 51.96424 | 14.52281 | 10301 ft | 240 kts | 266° |
| 2026-04-28 19:26 | 51.96278 | 14.49633 | 10298 ft | 238 kts | 273° |
| 2026-04-28 19:26 | 51.96251 | 14.46956 | 10295 ft | 237 kts | 275° |
| 2026-04-28 19:27 | 51.96248 | 14.44292 | 10295 ft | 237 kts | 275° |
| 2026-04-28 19:27 | 51.96249 | 14.41627 | 10291 ft | 237 kts | 276° |
| 2026-04-28 19:27 | 51.96328 | 14.38981 | 10293 ft | 235 kts | 280° |
| 2026-04-28 19:27 | 51.96518 | 14.36364 | 10289 ft | 234 kts | 282° |
| 2026-04-28 19:28 | 51.96742 | 14.33756 | 10291 ft | 234 kts | 280° |
| 2026-04-28 19:28 | 51.96830 | 14.31134 | 10291 ft | 236 kts | 276° |
| 2026-04-28 19:28 | 51.96853 | 14.28476 | 10292 ft | 236 kts | 275° |
| 2026-04-28 19:28 | 51.96861 | 14.25818 | 10294 ft | 237 kts | 275° |
| 2026-04-28 19:29 | 51.96867 | 14.23150 | 10291 ft | 237 kts | 275° |
| 2026-04-28 19:29 | 51.96870 | 14.21363 | 10291 ft | 237 kts | 275° |
| 2026-04-28 19:29 | 51.96876 | 14.17783 | 10291 ft | 237 kts | 275° |
| 2026-04-28 19:29 | 51.96878 | 14.15112 | 10294 ft | 238 kts | 275° |
| 2026-04-28 19:30 | 51.96876 | 14.12435 | 10292 ft | 238 kts | 275° |
| 2026-04-28 19:30 | 51.96875 | 14.09766 | 10290 ft | 237 kts | 275° |
| 2026-04-28 19:30 | 51.96876 | 14.07105 | 10291 ft | 237 kts | 275° |
| 2026-04-28 19:30 | 51.96883 | 14.04427 | 10292 ft | 237 kts | 275° |
| 2026-04-28 19:31 | 51.96894 | 14.01795 | 10290 ft | 236 kts | 275° |
| 2026-04-28 19:31 | 51.96905 | 13.99124 | 10289 ft | 237 kts | 275° |
| 2026-04-28 19:31 | 51.96915 | 13.96461 | 10290 ft | 237 kts | 275° |
| 2026-04-28 19:31 | 51.96925 | 13.93780 | 10291 ft | 238 kts | 275° |
| 2026-04-28 19:32 | 51.96935 | 13.91087 | 10290 ft | 238 kts | 275° |
| 2026-04-28 19:32 | 51.96944 | 13.88407 | 10290 ft | 238 kts | 275° |
| 2026-04-28 19:32 | 51.96953 | 13.85732 | 10288 ft | 239 kts | 275° |
| 2026-04-28 19:32 | 51.96960 | 13.83056 | 10287 ft | 238 kts | 276° |
| 2026-04-28 19:33 | 51.96962 | 13.80362 | 10288 ft | 238 kts | 275° |
| 2026-04-28 19:33 | 51.96965 | 13.77682 | 10296 ft | 238 kts | 275° |
| 2026-04-28 19:33 | 51.96968 | 13.74998 | 10303 ft | 238 kts | 275° |
| 2026-04-28 19:33 | 51.96973 | 13.72315 | 10301 ft | 238 kts | 275° |
| 2026-04-28 19:34 | 51.96981 | 13.69638 | 10297 ft | 238 kts | 275° |
| 2026-04-28 19:34 | 51.96989 | 13.66994 | 10297 ft | 238 kts | 275° |
| 2026-04-28 19:34 | 51.96998 | 13.64307 | 10297 ft | 238 kts | 275° |
| 2026-04-28 19:34 | 51.97005 | 13.61632 | 10297 ft | 238 kts | 275° |
| 2026-04-28 19:35 | 51.97013 | 13.58967 | 10302 ft | 238 kts | 276° |
| 2026-04-28 19:35 | 51.97017 | 13.56297 | 10305 ft | 238 kts | 276° |
| 2026-04-28 19:35 | 51.97019 | 13.53600 | 10302 ft | 238 kts | 275° |
| 2026-04-28 19:35 | 51.97022 | 13.50932 | 10301 ft | 239 kts | 275° |
| 2026-04-28 19:36 | 51.97028 | 13.48213 | 10299 ft | 239 kts | 276° |
| 2026-04-28 19:36 | 51.97033 | 13.45536 | 10303 ft | 239 kts | 276° |
| 2026-04-28 19:36 | 51.97039 | 13.42846 | 10310 ft | 239 kts | 276° |
| 2026-04-28 19:36 | 51.97048 | 13.40190 | 10315 ft | 238 kts | 276° |
| 2026-04-28 19:37 | 51.97059 | 13.37477 | 10304 ft | 238 kts | 276° |
| 2026-04-28 19:37 | 51.97066 | 13.35719 | 10305 ft | 238 kts | 276° |
| 2026-04-28 19:37 | 51.97081 | 13.32107 | 10301 ft | 239 kts | 275° |
| 2026-04-28 19:37 | 51.97331 | 13.29514 | 10274 ft | 231 kts | 300° |
| 2026-04-28 19:38 | 51.98322 | 13.27566 | 10291 ft | 223 kts | 331° |
| 2026-04-28 19:38 | 51.99767 | 13.26850 | 10309 ft | 220 kts | 2° |
| 2026-04-28 19:38 | 52.01240 | 13.27437 | 10317 ft | 221 kts | 20° |
| 2026-04-28 19:38 | 52.02655 | 13.28501 | 10320 ft | 222 kts | 24° |
| 2026-04-28 19:39 | 52.04033 | 13.29637 | 10103 ft | 225 kts | 25° |
| 2026-04-28 19:39 | 52.05427 | 13.30803 | 9730 ft | 227 kts | 25° |
| 2026-04-28 19:39 | 52.06833 | 13.31975 | 9346 ft | 228 kts | 25° |
| 2026-04-28 19:39 | 52.08248 | 13.33142 | 8969 ft | 230 kts | 25° |
| 2026-04-28 19:40 | 52.09675 | 13.34312 | 8591 ft | 231 kts | 25° |
| 2026-04-28 19:40 | 52.11108 | 13.35474 | 8216 ft | 233 kts | 24° |
| 2026-04-28 19:40 | 52.12658 | 13.36135 | 7827 ft | 233 kts | 2° |
| 2026-04-28 19:40 | 52.14285 | 13.36047 | 7450 ft | 235 kts | 356° |
| 2026-04-28 19:41 | 52.15922 | 13.35801 | 7060 ft | 237 kts | 355° |
| 2026-04-28 19:41 | 52.17559 | 13.35521 | 6676 ft | 238 kts | 355° |
| 2026-04-28 19:41 | 52.19182 | 13.34993 | 6274 ft | 241 kts | 336° |
| 2026-04-28 19:41 | 52.20469 | 13.33281 | 6001 ft | 242 kts | 304° |
| 2026-04-28 19:42 | 52.20986 | 13.30777 | 5989 ft | 232 kts | 272° |
| 2026-04-28 19:42 | 52.20764 | 13.28156 | 6002 ft | 232 kts | 258° |
| 2026-04-28 19:42 | 52.20344 | 13.25610 | 5996 ft | 233 kts | 255° |
| 2026-04-28 19:42 | 52.20044 | 13.23937 | 5998 ft | 233 kts | 255° |
| 2026-04-28 19:43 | 52.19426 | 13.20564 | 5996 ft | 234 kts | 255° |
| 2026-04-28 19:43 | 52.18958 | 13.18032 | 5994 ft | 234 kts | 255° |
| 2026-04-28 19:43 | 52.18486 | 13.15489 | 5994 ft | 234 kts | 255° |
| 2026-04-28 19:43 | 52.18012 | 13.12946 | 5993 ft | 234 kts | 255° |
| 2026-04-28 19:44 | 52.17538 | 13.10404 | 5992 ft | 235 kts | 255° |
| 2026-04-28 19:44 | 52.17070 | 13.07894 | 5989 ft | 235 kts | 255° |
| 2026-04-28 19:44 | 52.16591 | 13.05322 | 5991 ft | 235 kts | 255° |
| 2026-04-28 19:44 | 52.16124 | 13.02808 | 5991 ft | 234 kts | 255° |
| 2026-04-28 19:45 | 52.15656 | 13.00278 | 5993 ft | 234 kts | 255° |
| 2026-04-28 19:45 | 52.15184 | 12.97737 | 5990 ft | 234 kts | 255° |
| 2026-04-28 19:45 | 52.14712 | 12.95200 | 5988 ft | 235 kts | 255° |
| 2026-04-28 19:45 | 52.14238 | 12.92658 | 5987 ft | 235 kts | 255° |
| 2026-04-28 19:46 | 52.13763 | 12.90128 | 5988 ft | 235 kts | 255° |
| 2026-04-28 19:46 | 52.13287 | 12.87597 | 5986 ft | 235 kts | 255° |
| 2026-04-28 19:46 | 52.12816 | 12.85096 | 5977 ft | 227 kts | 255° |
| 2026-04-28 19:46 | 52.12353 | 12.82648 | 5975 ft | 226 kts | 255° |
| 2026-04-28 19:47 | 52.11894 | 12.80228 | 5974 ft | 226 kts | 255° |
| 2026-04-28 19:47 | 52.11432 | 12.77788 | 5972 ft | 225 kts | 255° |
| 2026-04-28 19:47 | 52.10974 | 12.75354 | 5977 ft | 225 kts | 255° |
| 2026-04-28 19:47 | 52.10524 | 12.72961 | 5974 ft | 217 kts | 255° |
| 2026-04-28 19:48 | 52.10084 | 12.70626 | 5983 ft | 216 kts | 255° |
| 2026-04-28 19:48 | 52.09644 | 12.68300 | 5984 ft | 215 kts | 255° |
| 2026-04-28 19:48 | 52.09217 | 12.65983 | 5981 ft | 214 kts | 261° |
| 2026-04-28 19:48 | 52.09259 | 12.63639 | 5966 ft | 207 kts | 296° |
| 2026-04-28 19:49 | 52.10105 | 12.61844 | 5985 ft | 199 kts | 333° |
| 2026-04-28 19:49 | 52.11393 | 12.61280 | 5994 ft | 192 kts | 9° |
| 2026-04-28 19:49 | 52.12642 | 12.61993 | 5830 ft | 191 kts | 30° |
| 2026-04-28 19:49 | 52.13765 | 12.63134 | 5571 ft | 189 kts | 34° |
| 2026-04-28 19:50 | 52.15909 | 12.65521 | 5065 ft | 186 kts | 35° |
| 2026-04-28 19:50 | 52.16976 | 12.66713 | 5000 ft | 186 kts | 35° |
| 2026-04-28 19:50 | 52.18049 | 12.67911 | 4998 ft | 187 kts | 35° |
| 2026-04-28 19:51 | 52.19115 | 12.69102 | 4996 ft | 187 kts | 35° |
| 2026-04-28 19:51 | 52.20148 | 12.70379 | 4994 ft | 187 kts | 44° |
| 2026-04-28 19:51 | 52.20997 | 12.72004 | 4996 ft | 187 kts | 56° |
| 2026-04-28 19:51 | 52.21616 | 12.73862 | 4994 ft | 188 kts | 66° |
| 2026-04-28 19:52 | 52.21998 | 12.75902 | 4998 ft | 189 kts | 77° |
| 2026-04-28 19:52 | 52.22123 | 12.78028 | 4997 ft | 190 kts | 88° |
| 2026-04-28 19:52 | 52.21983 | 12.80186 | 4994 ft | 192 kts | 98° |
| 2026-04-28 19:52 | 52.21744 | 12.82319 | 4996 ft | 192 kts | 94° |
| 2026-04-28 19:53 | 52.21691 | 12.84499 | 4997 ft | 190 kts | 83° |
| 2026-04-28 19:53 | 52.21900 | 12.86589 | 4992 ft | 182 kts | 72° |
| 2026-04-28 19:53 | 52.22319 | 12.88412 | 4976 ft | 167 kts | 63° |
| 2026-04-28 19:53 | 52.22815 | 12.90119 | 4996 ft | 166 kts | 63° |
| 2026-04-28 19:54 | 52.23307 | 12.91836 | 5000 ft | 166 kts | 64° |
| 2026-04-28 19:54 | 52.23783 | 12.93558 | 5001 ft | 166 kts | 64° |
| 2026-04-28 19:54 | 52.24242 | 12.95275 | 5001 ft | 166 kts | 65° |
| 2026-04-28 19:54 | 52.24695 | 12.97030 | 5001 ft | 167 kts | 66° |
| 2026-04-28 19:55 | 52.25132 | 12.98780 | 5001 ft | 167 kts | 67° |
| 2026-04-28 19:55 | 52.25394 | 13.00624 | 4976 ft | 168 kts | 79° |
| 2026-04-28 19:55 | 52.25489 | 13.02542 | 4888 ft | 169 kts | 86° |
| 2026-04-28 19:55 | 52.25461 | 13.04455 | 4754 ft | 170 kts | 91° |
| 2026-04-28 19:56 | 52.25409 | 13.06384 | 4594 ft | 167 kts | 86° |
| 2026-04-28 19:56 | 52.25454 | 13.08257 | 4725 ft | 168 kts | 83° |
| 2026-04-28 19:56 | 52.25556 | 13.10165 | 4927 ft | 168 kts | 76° |
| 2026-04-28 19:56 | 52.25822 | 13.12055 | 4969 ft | 182 kts | 77° |